Time;durP1;ratioP1;P1;durP2;ratioP2;P2;SDS_P1;SDS_P2;PMS_P1;PMS_P2;Temp;Humidity;BMP_temperature;BMP_pressure;BME280_temperature;BME280_humidity;BME280_pressure;Samples;Min_cycle;Max_cycle;Signal;HPM_P1;HPM_P2
2021/10/01 00:02:21;;;;;;;7.80;2.00;;;;;;;12.85;60.53;99411.34;5049786;28;20111;-50
2021/10/01 00:04:47;;;;;;;6.65;2.08;;;;;;;13.10;59.97;99406.38;5051196;28;20047;-51
2021/10/01 00:07:12;;;;;;;5.85;3.03;;;;;;;13.17;59.29;99406.38;5050760;28;20503;-51
2021/10/01 00:09:42;;;;;;;10.32;7.82;;;;;;;13.02;58.91;99400.44;5053428;28;20037;-51
2021/10/01 00:12:09;;;;;;;5.93;2.22;;;;;;;12.85;59.95;99416.59;5054744;28;20114;-51
2021/10/01 00:14:36;;;;;;;11.02;4.75;;;;;;;12.66;60.19;99420.00;5054639;28;20021;-51
2021/10/01 00:17:03;;;;;;;23.40;18.33;;;;;;;12.45;60.70;99415.59;5053287;28;20025;-51
2021/10/01 00:19:31;;;;;;;15.75;10.18;;;;;;;12.22;61.37;99413.25;5054578;28;20120;-51
2021/10/01 00:21:57;;;;;;;12.32;5.50;;;;;;;12.08;61.70;99412.34;5053195;28;20399;-51
2021/10/01 00:24:23;;;;;;;6.38;3.75;;;;;;;12.14;62.09;99422.13;5052966;28;20057;-52
2021/10/01 00:26:49;;;;;;;34.78;27.10;;;;;;;12.19;62.23;99415.28;5054415;28;20044;-51
2021/10/01 00:29:14;;;;;;;10.07;7.13;;;;;;;12.27;61.89;99424.00;5054391;28;20036;-50
2021/10/01 00:31:40;;;;;;;7.57;2.53;;;;;;;12.40;61.61;99413.56;5054363;28;20017;-51
2021/10/01 00:34:06;;;;;;;9.77;2.95;;;;;;;12.56;61.03;99415.88;5054265;28;20056;-50
2021/10/01 00:36:33;;;;;;;4.78;2.90;;;;;;;12.53;60.79;99411.00;5054276;28;20052;-51
2021/10/01 00:38:59;;;;;;;3.00;1.60;;;;;;;12.39;61.02;99409.28;5054250;28;20518;-51
2021/10/01 00:41:27;;;;;;;5.28;1.95;;;;;;;12.26;61.02;99411.88;5052917;28;20407;-51
2021/10/01 00:43:53;;;;;;;5.40;1.88;;;;;;;12.07;61.55;99414.16;5054134;28;20033;-51
2021/10/01 00:46:18;;;;;;;8.73;2.08;;;;;;;11.92;61.92;99408.19;5054013;28;20029;-51
2021/10/01 00:48:44;;;;;;;5.93;2.40;;;;;;;11.82;62.32;99407.69;5054052;28;20036;-51
2021/10/01 00:51:11;;;;;;;6.70;2.33;;;;;;;11.73;62.50;99407.81;5053961;28;20021;-50
2021/10/01 00:53:37;;;;;;;6.75;1.70;;;;;;;11.65;62.93;99410.59;5053881;28;20051;-50
2021/10/01 00:56:03;;;;;;;2.95;1.65;;;;;;;11.55;63.34;99408.28;5052753;28;20025;-51
2021/10/01 00:58:30;;;;;;;3.15;1.73;;;;;;;11.50;63.55;99396.69;5053863;28;20509;-51
2021/10/01 01:01:09;;;;;;;11.27;6.60;;;;;;;11.51;63.84;99400.94;5052441;28;20028;-51
2021/10/01 01:03:44;;;;;;;10.50;2.40;;;;;;;11.70;63.76;99402.94;5053864;28;20086;-51
2021/10/01 01:06:16;;;;;;;10.27;5.20;;;;;;;11.96;63.15;99401.53;5052463;28;20032;-51
2021/10/01 01:09:12;;;;;;;10.77;3.97;;;;;;;12.06;62.80;99398.59;5052377;28;20040;-50
2021/10/01 01:11:51;;;;;;;7.53;2.70;;;;;;;12.17;62.43;99405.94;5051784;28;20067;-50
2021/10/01 01:14:31;;;;;;;8.45;2.22;;;;;;;12.20;62.08;99402.91;5053591;28;20163;-51
2021/10/01 01:16:58;;;;;;;20.95;7.43;;;;;;;12.18;62.13;99397.03;5052262;28;20036;-51
2021/10/01 01:19:38;;;;;;;7.53;2.78;;;;;;;12.30;61.91;99392.06;5052439;28;20487;-51
2021/10/01 01:22:13;;;;;;;4.38;1.98;;;;;;;12.46;61.44;99401.44;5053406;28;20044;-51
2021/10/01 01:24:57;;;;;;;5.97;2.30;;;;;;;12.50;60.58;99395.59;5053174;28;20094;-51
2021/10/01 01:27:37;;;;;;;6.53;1.95;;;;;;;12.28;61.11;99379.06;5053374;28;20024;-51
2021/10/01 01:30:23;;;;;;;7.45;2.47;;;;;;;12.21;61.44;99380.84;5053310;28;20057;-51
2021/10/01 01:32:53;;;;;;;27.30;21.13;;;;;;;12.33;61.68;99381.13;5051838;28;20025;-50
2021/10/01 01:35:21;;;;;;;7.75;3.28;;;;;;;12.41;61.11;99369.63;5051868;28;20410;-51
2021/10/01 01:37:53;;;;;;;10.25;2.72;;;;;;;12.56;60.68;99373.75;5051810;28;20403;-51
2021/10/01 01:40:25;;;;;;;8.82;2.63;;;;;;;12.64;60.78;99353.53;5053165;28;20041;-51
2021/10/01 01:42:55;;;;;;;7.22;2.00;;;;;;;12.81;60.01;99353.97;5053039;28;20391;-51
2021/10/01 01:45:21;;;;;;;9.90;3.45;;;;;;;12.83;59.74;99350.13;5051678;28;20044;-51
2021/10/01 01:47:48;;;;;;;6.60;2.40;;;;;;;12.82;59.46;99350.31;5051651;28;20021;-51
2021/10/01 01:50:16;;;;;;;16.35;12.48;;;;;;;12.77;60.15;99343.84;5052898;28;20074;-51
2021/10/01 01:52:44;;;;;;;12.63;6.90;;;;;;;12.78;60.27;99334.94;5051615;28;20025;-50
2021/10/01 01:55:12;;;;;;;9.45;3.58;;;;;;;12.68;59.83;99333.69;5051367;28;20039;-51
2021/10/01 01:57:41;;;;;;;6.13;2.10;;;;;;;12.36;60.79;99336.81;5052706;28;20029;-50
2021/10/01 02:00:08;;;;;;;8.77;2.95;;;;;;;12.29;61.24;99335.94;5051364;28;20036;-50
2021/10/01 02:02:35;;;;;;;4.80;2.08;;;;;;;12.36;60.36;99336.00;5052683;28;20040;-51
2021/10/01 02:05:02;;;;;;;9.18;2.33;;;;;;;12.25;61.29;99339.16;5052567;28;20398;-51
2021/10/01 02:07:29;;;;;;;11.75;7.93;;;;;;;12.30;61.04;99328.88;5052562;28;20107;-50
2021/10/01 02:09:56;;;;;;;5.70;2.50;;;;;;;12.41;61.04;99327.50;5052528;28;20040;-51
2021/10/01 02:12:23;;;;;;;9.88;4.57;;;;;;;12.37;60.56;99324.44;5052383;28;20016;-51
2021/10/01 02:14:54;;;;;;;9.55;5.05;;;;;;;12.11;60.91;99322.50;5052345;28;20021;-51
2021/10/01 02:17:21;;;;;;;14.95;8.15;;;;;;;11.87;62.00;99319.31;5052379;28;20067;-51
2021/10/01 02:19:50;;;;;;;7.38;3.13;;;;;;;11.63;62.58;99317.09;5052388;28;20486;-51
2021/10/01 02:22:18;;;;;;;12.65;5.00;;;;;;;11.46;63.47;99314.75;5052281;28;20017;-50
2021/10/01 02:24:45;;;;;;;7.60;2.30;;;;;;;11.38;63.89;99317.53;5052091;28;20384;-51
2021/10/01 02:27:29;;;;;;;7.70;2.70;;;;;;;11.40;63.76;99316.34;5052194;28;20021;-51
2021/10/01 02:30:06;;;;;;;7.60;2.05;;;;;;;11.36;64.09;99312.47;5050742;28;20029;-50
2021/10/01 02:32:37;;;;;;;9.25;3.00;;;;;;;11.38;64.07;99313.09;5052140;28;20032;-51
2021/10/01 02:35:05;;;;;;;5.90;2.40;;;;;;;11.47;64.16;99312.94;5052055;28;20074;-51
2021/10/01 02:37:32;;;;;;;14.88;2.90;;;;;;;11.65;63.70;99302.78;5050751;28;20035;-50
2021/10/01 02:39:59;;;;;;;6.38;2.70;;;;;;;11.91;63.16;99307.44;5051983;28;20309;-51
2021/10/01 02:42:28;;;;;;;14.45;2.70;;;;;;;12.10;62.21;99295.38;5052256;28;20541;-50
2021/10/01 02:44:54;;;;;;;9.20;1.90;;;;;;;12.26;61.68;99290.81;5050655;28;20040;-51
2021/10/01 02:47:26;;;;;;;9.02;2.90;;;;;;;12.34;61.42;99282.75;5051879;28;20025;-51
2021/10/01 02:49:52;;;;;;;5.95;1.92;;;;;;;12.24;61.13;99283.09;5051946;28;20052;-50
2021/10/01 02:52:33;;;;;;;3.38;2.45;;;;;;;12.08;61.76;99280.81;5052106;28;20501;-51
2021/10/01 02:55:09;;;;;;;9.05;2.45;;;;;;;11.98;61.92;99286.41;5050379;28;20029;-51
2021/10/01 02:58:00;;;;;;;10.65;4.22;;;;;;;11.77;62.38;99280.22;5051850;28;20462;-51
2021/10/01 03:00:26;;;;;;;7.65;2.58;;;;;;;11.73;62.65;99281.59;5050466;28;20031;-51
2021/10/01 03:02:54;;;;;;;9.25;4.90;;;;;;;11.71;62.90;99267.00;5050453;28;20029;-51
2021/10/01 03:05:23;;;;;;;6.35;2.35;;;;;;;11.75;62.94;99276.13;5050323;28;20021;-51
2021/10/01 03:07:50;;;;;;;9.07;3.20;;;;;;;11.73;63.08;99268.47;5050622;28;20037;-51
2021/10/01 03:10:16;;;;;;;6.43;2.00;;;;;;;11.84;62.66;99253.13;5050306;28;20064;-50
2021/10/01 03:12:44;;;;;;;15.10;4.57;;;;;;;12.02;62.77;99248.19;5050317;28;20052;-51
2021/10/01 03:15:11;;;;;;;22.20;4.53;;;;;;;12.12;62.01;99240.75;5051517;28;20067;-51
2021/10/01 03:17:39;;;;;;;7.97;2.45;;;;;;;12.16;61.72;99241.97;5051600;28;20029;-51
2021/10/01 03:20:07;;;;;;;6.68;2.03;;;;;;;12.18;61.52;99236.53;5050254;28;20021;-51
2021/10/01 03:22:33;;;;;;;10.00;5.28;;;;;;;12.23;61.59;99230.66;5051534;28;20052;-51
2021/10/01 03:25:01;;;;;;;5.25;2.40;;;;;;;12.23;61.14;99228.03;5049974;28;20040;-51
2021/10/01 03:27:30;;;;;;;10.88;3.58;;;;;;;12.12;61.16;99232.06;5051556;28;20045;-51
2021/10/01 03:30:02;;;;;;;12.15;2.70;;;;;;;12.06;61.26;99225.75;5050156;28;20036;-50
2021/10/01 03:32:30;;;;;;;11.23;2.30;;;;;;;11.90;61.93;99223.47;5050139;28;20021;-50
2021/10/01 03:34:57;;;;;;;7.25;3.20;;;;;;;11.76;62.04;99215.47;5051381;28;20075;-50
2021/10/01 03:37:23;;;;;;;7.65;2.45;;;;;;;11.64;62.36;99218.84;5051351;28;20041;-51
2021/10/01 03:40:06;;;;;;;11.82;4.95;;;;;;;11.43;63.14;99220.53;5050052;28;20032;-51
2021/10/01 03:42:35;;;;;;;409.95;172.23;;;;;;;11.32;63.52;99216.63;5053027;28;20029;-51
2021/10/01 03:45:03;;;;;;;105.03;20.58;;;;;;;11.22;64.05;99218.78;5053959;28;20033;-51
2021/10/01 03:47:29;;;;;;;36.63;10.45;;;;;;;11.20;63.94;99216.31;5053924;28;20119;-51
2021/10/01 03:49:54;;;;;;;21.00;4.63;;;;;;;11.25;64.03;99215.78;5055178;28;20104;-51
2021/10/01 03:52:20;;;;;;;8.77;2.78;;;;;;;11.24;63.87;99211.50;5055135;28;20372;-51
2021/10/01 03:54:49;;;;;;;18.40;3.08;;;;;;;11.18;64.08;99215.72;5053740;28;20078;-51
2021/10/01 03:57:15;;;;;;;11.23;2.67;;;;;;;11.14;64.25;99209.22;5055023;28;20055;-51
2021/10/01 03:59:41;;;;;;;6.40;2.28;;;;;;;11.11;64.39;99216.69;5053733;28;20024;-51
2021/10/01 04:02:06;;;;;;;8.88;2.72;;;;;;;11.18;64.39;99217.53;5053657;28;20021;-51
2021/10/01 04:04:32;;;;;;;6.63;2.40;;;;;;;11.30;64.43;99215.19;5054920;28;20025;-51
2021/10/01 04:06:58;;;;;;;11.95;5.20;;;;;;;11.45;64.13;99209.81;5053517;28;20025;-50
2021/10/01 04:09:25;;;;;;;14.40;10.32;;;;;;;11.51;63.35;99207.25;5054877;28;20067;-51
2021/10/01 04:11:53;;;;;;;5.30;3.40;;;;;;;11.53;63.02;99210.50;5054888;28;20033;-51
2021/10/01 04:14:21;;;;;;;4.70;3.00;;;;;;;11.43;63.20;99209.19;5054698;28;20052;-51
2021/10/01 04:16:48;;;;;;;14.73;6.38;;;;;;;11.36;63.44;99209.16;5053383;28;20508;-51
2021/10/01 04:19:14;;;;;;;9.10;3.08;;;;;;;11.44;63.31;99209.00;5053340;28;20090;-51
2021/10/01 04:21:40;;;;;;;7.72;2.40;;;;;;;11.50;62.88;99210.88;5053270;28;20032;-51
2021/10/01 04:24:05;;;;;;;6.85;3.45;;;;;;;11.43;63.11;99210.03;5053020;28;20037;-52
2021/10/01 04:26:31;;;;;;;13.07;3.25;;;;;;;11.36;62.94;99209.97;5053193;28;20025;-51
2021/10/01 04:28:57;;;;;;;11.73;2.50;;;;;;;11.33;63.21;99206.94;5054408;28;20025;-51
2021/10/01 04:31:22;;;;;;;7.00;3.45;;;;;;;11.27;63.31;99205.88;5054416;28;20029;-51
2021/10/01 04:33:48;;;;;;;8.60;3.78;;;;;;;11.30;63.81;99199.44;5054520;28;20029;-51
2021/10/01 04:36:14;;;;;;;10.45;4.20;;;;;;;11.23;63.90;99195.94;5054328;28;20406;-51
2021/10/01 04:38:41;;;;;;;14.10;3.47;;;;;;;11.25;64.07;99193.91;5054536;28;20048;-50
2021/10/01 04:41:07;;;;;;;10.65;3.20;;;;;;;11.32;64.06;99197.41;5054183;28;20032;-51
2021/10/01 04:43:32;;;;;;;7.80;4.57;;;;;;;11.54;63.39;99198.16;5052893;28;20024;-51
2021/10/01 04:45:58;;;;;;;11.40;2.78;;;;;;;11.53;62.67;99196.53;5052767;28;20479;-51
2021/10/01 04:48:25;;;;;;;10.20;5.55;;;;;;;11.49;62.83;99185.59;5054098;28;20029;-51
2021/10/01 04:50:50;;;;;;;6.28;2.22;;;;;;;11.48;62.75;99193.69;5053988;28;20505;-51
2021/10/01 04:53:16;;;;;;;8.02;2.20;;;;;;;11.48;62.39;99196.31;5053817;28;20100;-51
2021/10/01 04:55:46;;;;;;;7.65;2.55;;;;;;;11.34;62.85;99187.53;5052593;28;20040;-50
2021/10/01 04:58:12;;;;;;;6.47;2.65;;;;;;;11.27;63.21;99191.91;5054089;28;20017;-51
2021/10/01 05:00:38;;;;;;;6.20;2.20;;;;;;;11.25;63.17;99183.41;5052567;28;20032;-51
2021/10/01 05:03:03;;;;;;;18.67;3.28;;;;;;;11.19;63.35;99183.19;5053786;28;20013;-51
2021/10/01 05:05:29;;;;;;;11.00;2.05;;;;;;;11.16;63.58;99182.75;5052434;28;20029;-51
2021/10/01 05:07:55;;;;;;;13.93;4.53;;;;;;;11.14;63.58;99188.19;5052741;28;20399;-51
2021/10/01 05:10:21;;;;;;;9.05;3.15;;;;;;;11.17;63.92;99193.09;5052351;28;20056;-51
2021/10/01 05:12:47;;;;;;;11.27;3.17;;;;;;;11.24;63.65;99185.22;5053721;28;20017;-50
2021/10/01 05:15:13;;;;;;;10.95;3.63;;;;;;;11.31;63.35;99187.94;5052142;28;20063;-52
2021/10/01 05:17:40;;;;;;;9.10;2.83;;;;;;;11.42;63.27;99195.25;5053429;28;20029;-51
2021/10/01 05:20:11;;;;;;;9.75;2.90;;;;;;;11.46;63.09;99190.44;5053435;28;20024;-51
2021/10/01 05:22:37;;;;;;;7.53;2.95;;;;;;;11.38;62.78;99184.31;5053528;28;20108;-50
2021/10/01 05:25:04;;;;;;;22.30;4.43;;;;;;;11.33;62.95;99191.97;5053124;28;20096;-51
2021/10/01 05:27:30;;;;;;;11.05;2.80;;;;;;;11.21;63.23;99196.16;5053401;28;20078;-51
2021/10/01 05:29:56;;;;;;;13.32;3.15;;;;;;;11.09;63.36;99200.31;5053324;28;20032;-51
2021/10/01 05:32:22;;;;;;;11.77;2.65;;;;;;;10.93;63.74;99202.19;5053222;28;20063;-51
2021/10/01 05:34:47;;;;;;;7.63;2.55;;;;;;;10.83;64.12;99204.34;5053201;28;20083;-51
2021/10/01 05:37:14;;;;;;;11.82;3.30;;;;;;;10.82;64.51;99201.88;5051836;28;20029;-51
2021/10/01 05:39:40;;;;;;;12.18;4.65;;;;;;;10.92;64.66;99202.38;5051796;28;20021;-51
2021/10/01 05:42:06;;;;;;;21.55;4.95;;;;;;;11.15;64.88;99202.97;5053101;28;20032;-51
2021/10/01 05:44:32;;;;;;;16.60;5.15;;;;;;;11.29;64.65;99209.13;5051699;28;20029;-51
2021/10/01 05:47:01;;;;;;;13.70;3.00;;;;;;;11.43;64.04;99201.31;5052931;28;20368;-51
2021/10/01 05:49:36;;;;;;;5.28;2.10;;;;;;;11.50;63.23;99221.38;5052866;28;20108;-51
2021/10/01 05:52:15;;;;;;;8.38;2.63;;;;;;;11.47;62.92;99215.69;5052892;28;20025;-51
2021/10/01 05:54:41;;;;;;;37.58;24.27;;;;;;;11.40;62.99;99219.09;5052814;28;20040;-51
2021/10/01 05:57:11;;;;;;;13.80;7.70;;;;;;;11.47;63.02;99207.81;5051371;28;20510;-51
2021/10/01 05:59:43;;;;;;;18.77;13.48;;;;;;;11.51;63.07;99212.50;5052804;28;20056;-51
2021/10/01 06:02:16;;;;;;;10.18;5.35;;;;;;;11.72;62.51;99208.97;5051303;28;20561;-51
2021/10/01 06:04:42;;;;;;;11.88;5.72;;;;;;;12.17;61.75;99208.56;5052107;28;20025;-52
2021/10/01 06:07:08;;;;;;;9.98;3.80;;;;;;;12.93;59.87;99205.66;5052546;28;20028;-51
2021/10/01 06:09:35;;;;;;;15.35;3.88;;;;;;;13.74;58.55;99195.84;5052554;28;20017;-51
2021/10/01 06:12:01;;;;;;;14.48;3.40;;;;;;;14.44;55.69;99193.28;5052441;28;20025;-51
2021/10/01 06:14:29;;;;;;;14.70;4.80;;;;;;;15.12;54.03;99195.22;5051101;28;20036;-51
2021/10/01 06:16:56;;;;;;;15.32;3.72;;;;;;;15.57;52.45;99189.72;5052327;28;20021;-51
2021/10/01 06:19:22;;;;;;;7.80;2.80;;;;;;;15.97;50.84;99183.16;5052390;28;20399;-51
2021/10/01 06:21:48;;;;;;;14.30;3.67;;;;;;;16.11;49.71;99184.59;5050960;28;20056;-51
2021/10/01 06:24:14;;;;;;;10.77;2.88;;;;;;;16.25;50.22;99189.72;5051992;28;20120;-52
2021/10/01 06:26:40;;;;;;;13.93;4.50;;;;;;;16.50;49.09;99197.50;5052204;28;20025;-51
2021/10/01 06:29:06;;;;;;;16.98;4.28;;;;;;;16.68;49.03;99181.56;5052192;28;20087;-48
2021/10/01 06:31:32;;;;;;;30.25;16.17;;;;;;;16.86;47.87;99179.88;5050856;28;20021;-48
2021/10/01 06:33:58;;;;;;;18.13;4.13;;;;;;;16.40;48.57;99182.19;5051995;28;20036;-48
2021/10/01 06:36:24;;;;;;;22.38;5.15;;;;;;;15.67;50.29;99186.53;5052057;28;20037;-48
2021/10/01 06:38:51;;;;;;;230.25;206.27;;;;;;;15.17;51.93;99184.81;5050735;28;20029;-49
2021/10/01 06:41:17;;;;;;;72.28;60.00;;;;;;;14.85;53.28;99192.00;5052031;28;20455;-51
2021/10/01 06:43:44;;;;;;;109.57;98.90;;;;;;;14.83;53.39;99187.94;5051968;28;20029;-51
2021/10/01 06:46:31;;;;;;;66.22;35.35;;;;;;;15.10;53.28;99199.94;5052170;28;20021;-51
2021/10/01 06:52:28;;;;;;;27.17;5.43;;;;;;;16.76;50.99;99191.84;5051896;28;20479;-49
2021/10/01 08:21:33;;;;;;;15.50;3.22;;;;;;;26.55;32.02;99156.38;5054579;28;20033;-50
2021/10/01 08:23:59;;;;;;;9.90;3.25;;;;;;;26.54;32.07;99144.00;5054579;28;20046;-50
2021/10/01 08:26:27;;;;;;;46.28;31.20;;;;;;;26.64;32.43;99138.47;5054297;28;20150;-49
2021/10/01 08:28:53;;;;;;;18.40;5.43;;;;;;;27.21;31.43;99144.44;5054021;28;20017;-49
2021/10/01 08:31:21;;;;;;;9.52;3.30;;;;;;;27.61;30.99;99139.38;5054421;28;20509;-50
2021/10/01 08:33:48;;;;;;;11.98;4.70;;;;;;;27.88;29.89;99137.72;5054264;28;20029;-49
2021/10/01 08:36:17;;;;;;;13.00;5.32;;;;;;;28.35;30.09;99132.84;5054353;28;20118;-50
2021/10/01 08:38:47;;;;;;;995.40;656.78;;;;;;;27.63;30.57;99142.56;5054265;28;20013;-50
2021/10/01 08:41:14;;;;;;;493.02;301.70;;;;;;;26.19;32.38;99140.78;5052909;28;20033;-50
2021/10/01 08:43:42;;;;;;;70.60;33.50;;;;;;;24.98;34.25;99140.09;5054158;28;20055;-50
2021/10/01 08:46:09;;;;;;;136.27;78.47;;;;;;;24.57;35.87;99138.59;5052878;28;20407;-49
2021/10/01 08:48:37;;;;;;;173.48;150.93;;;;;;;25.51;35.08;99137.38;5052796;28;20052;-49
2021/10/01 08:51:06;;;;;;;18.17;7.03;;;;;;;26.37;33.61;99125.72;5052824;28;20070;-50
2021/10/01 08:53:33;;;;;;;58.15;13.07;;;;;;;26.52;33.50;99122.75;5053878;28;20063;-49
2021/10/01 08:56:00;;;;;;;49.17;11.45;;;;;;;27.04;32.87;99128.84;5053870;28;20037;-50
2021/10/01 08:58:27;;;;;;;58.03;16.30;;;;;;;27.33;31.84;99132.41;5053922;28;20017;-51
2021/10/01 09:00:56;;;;;;;33.22;11.43;;;;;;;27.97;31.20;99127.00;5053876;28;20029;-50
2021/10/01 09:03:22;;;;;;;38.42;14.05;;;;;;;28.54;30.77;99126.50;5053944;28;20027;-50
2021/10/01 09:05:48;;;;;;;47.90;13.70;;;;;;;29.13;29.83;99120.94;5053827;28;20021;-49
2021/10/01 09:08:19;;;;;;;68.63;12.90;;;;;;;29.76;29.16;99108.03;5054106;28;20543;-50
2021/10/01 09:11:00;;;;;;;158.93;18.45;;;;;;;30.34;29.00;99114.09;5053703;28;20025;-50
2021/10/01 09:13:27;;;;;;;25.17;8.07;;;;;;;30.55;28.18;99109.59;5053926;28;20076;-50
2021/10/01 09:16:06;;;;;;;40.92;7.57;;;;;;;31.16;27.68;99108.59;5053586;28;20464;-50
2021/10/01 09:18:35;;;;;;;45.10;9.02;;;;;;;31.33;27.29;99104.97;5035723;28;20029;-48
2021/10/01 09:21:12;;;;;;;58.10;10.45;;;;;;;31.74;26.93;99106.97;5053478;28;20051;-48
2021/10/01 09:23:46;;;;;;;69.35;9.15;;;;;;;32.10;26.51;99099.34;5052236;28;20025;-47
2021/10/01 09:26:15;;;;;;;82.03;8.70;;;;;;;32.69;25.37;99087.41;5053201;28;20063;-48
2021/10/01 09:28:55;;;;;;;69.30;9.75;;;;;;;32.87;25.94;99079.84;5053344;28;20025;-48
2021/10/01 09:31:39;;;;;;;12.25;2.90;;;;;;;33.01;25.58;99085.72;5052104;28;20063;-48
2021/10/01 09:34:28;;;;;;;;;;;;;;;33.34;25.52;99082.09;5053613;28;20032;-48
2021/10/01 09:37:06;;;;;;;135.25;12.20;;;;;;;32.96;25.57;99073.16;5052701;28;20446;-48
2021/10/01 09:39:38;;;;;;;42.35;5.72;;;;;;;33.22;24.43;99070.09;5052345;28;20043;-48
2021/10/01 09:42:16;;;;;;;207.23;20.52;;;;;;;32.48;25.87;99074.69;5053061;28;20021;-48
2021/10/01 09:44:51;;;;;;;139.75;14.13;;;;;;;32.40;25.90;99068.19;5053336;28;20029;-48
2021/10/01 09:47:26;;;;;;;7.93;2.58;;;;;;;31.87;26.70;99066.31;5053254;28;20433;-48
2021/10/01 09:50:05;;;;;;;17.70;3.92;;;;;;;32.31;26.19;99061.28;5051738;28;20028;-48
2021/10/01 09:52:51;;;;;;;8.60;2.85;;;;;;;33.33;24.93;99053.31;5052937;28;20112;-47
2021/10/01 09:55:20;;;;;;;17.08;3.83;;;;;;;33.84;24.46;99050.91;5052803;28;20021;-48
2021/10/01 09:58:07;;;;;;;10.02;2.70;;;;;;;33.89;24.24;99053.38;5052650;28;20025;-47
2021/10/01 10:00:46;;;;;;;13.98;3.20;;;;;;;34.13;23.81;99035.31;5052804;28;20154;-48
2021/10/01 10:03:31;;;;;;;11.52;2.90;;;;;;;34.30;24.51;99036.97;5052727;28;20108;-47
2021/10/01 10:06:05;;;;;;;14.40;3.33;;;;;;;34.60;23.65;99021.75;5051371;28;20075;-48
2021/10/01 10:08:39;;;;;;;13.32;5.03;;;;;;;34.68;23.83;99022.75;5051247;28;20517;-50
2021/10/01 10:11:12;;;;;;;12.32;4.82;;;;;;;35.25;23.33;99031.44;5051431;28;20442;-50
2021/10/01 10:13:48;;;;;;;9.33;4.00;;;;;;;35.76;22.20;99025.88;5051442;28;20029;-51
2021/10/01 10:16:29;;;;;;;8.27;3.67;;;;;;;35.75;22.01;99027.03;5052491;28;20099;-50
2021/10/01 10:19:08;;;;;;;8.77;4.00;;;;;;;35.85;21.91;99016.69;5052685;28;20033;-50
2021/10/01 10:21:35;;;;;;;9.13;4.25;;;;;;;35.83;21.96;99005.31;5051038;28;20033;-51
2021/10/01 10:24:02;;;;;;;7.00;4.03;;;;;;;35.44;22.45;99003.38;5050960;28;20112;-51
2021/10/01 10:26:28;;;;;;;9.95;4.20;;;;;;;34.98;22.70;98998.50;5052060;28;20442;-51
2021/10/01 10:28:59;;;;;;;9.85;4.43;;;;;;;34.38;23.61;98985.00;5052145;28;20028;-51
2021/10/01 10:31:27;;;;;;;6.70;5.15;;;;;;;33.88;24.29;98985.66;5051099;28;20029;-51
2021/10/01 10:33:57;;;;;;;7.63;4.50;;;;;;;33.55;24.22;98987.47;5052080;28;20031;-51
2021/10/01 10:36:40;;;;;;;10.88;5.20;;;;;;;33.64;24.95;98984.63;5052037;28;20027;-48
2021/10/01 10:39:11;;;;;;;7.53;4.93;;;;;;;33.62;24.53;98973.28;5052163;28;20059;-50
2021/10/01 10:41:46;;;;;;;5.53;4.82;;;;;;;33.61;25.55;98980.66;5050650;28;20040;-48
2021/10/01 10:44:14;;;;;;;7.15;5.75;;;;;;;33.97;24.75;98972.69;5051932;28;20033;-50
2021/10/01 10:46:47;;;;;;;11.45;5.50;;;;;;;33.93;24.82;98966.34;5050886;28;20021;-50
2021/10/01 10:49:19;;;;;;;7.93;5.72;;;;;;;33.62;25.06;98978.75;5050584;28;20108;-48
2021/10/01 10:51:57;;;;;;;10.85;5.60;;;;;;;33.02;25.60;98963.03;5051907;28;20106;-48
2021/10/01 10:54:28;;;;;;;11.07;6.43;;;;;;;32.31;26.19;98969.69;5051729;28;20017;-48
2021/10/01 10:57:21;;;;;;;11.88;5.90;;;;;;;31.52;27.49;98967.00;5050503;28;20127;-49
2021/10/01 10:59:55;;;;;;;7.55;5.47;;;;;;;31.30;28.28;98978.16;5052056;28;20029;-50
2021/10/01 11:02:46;;;;;;;7.63;5.73;;;;;;;30.84;28.63;98975.25;5050454;28;20025;-49
2021/10/01 11:05:26;;;;;;;10.88;5.93;;;;;;;30.81;29.13;98967.78;5051817;28;20489;-50
2021/10/01 11:08:21;;;;;;;7.97;5.50;;;;;;;31.28;28.02;98972.28;5051720;28;20406;-50
2021/10/01 11:10:48;;;;;;;9.40;6.22;;;;;;;31.50;28.24;98954.91;5051782;28;20172;-50
2021/10/01 11:13:22;;;;;;;18.45;10.95;;;;;;;31.55;27.73;98960.91;5050297;28;20510;-50
2021/10/01 11:16:09;;;;;;;7.45;6.50;;;;;;;31.10;28.04;98975.13;5051566;28;20025;-50
2021/10/01 11:18:47;;;;;;;14.68;6.88;;;;;;;30.73;28.67;98950.47;5051512;28;20029;-50
2021/10/01 11:21:25;;;;;;;12.35;7.03;;;;;;;30.68;29.38;98964.19;5051808;28;20029;-50
2021/10/01 11:24:15;;;;;;;14.80;6.82;;;;;;;30.54;28.65;98956.28;5051601;28;20142;-50
2021/10/01 11:26:51;;;;;;;10.73;7.18;;;;;;;30.24;29.74;98956.25;5051297;28;20053;-50
2021/10/01 11:29:32;;;;;;;16.52;7.80;;;;;;;30.44;29.39;98957.44;5050581;28;20037;-50
2021/10/01 11:32:17;;;;;;;169.55;151.63;;;;;;;30.62;30.79;98955.44;5051736;28;20486;-49
2021/10/01 11:34:49;;;;;;;554.63;497.23;;;;;;;30.77;30.07;98950.59;5050103;28;20414;-50
2021/10/01 11:37:29;;;;;;;441.13;365.95;;;;;;;30.83;29.29;98944.66;5050128;28;20036;-50
2021/10/01 11:40:08;;;;;;;479.50;432.30;;;;;;;30.51;29.46;98943.41;5051460;28;20064;-50
2021/10/01 11:42:40;;;;;;;628.72;558.88;;;;;;;30.18;29.80;98932.38;5051453;28;20025;-50
2021/10/01 11:45:13;;;;;;;363.55;327.55;;;;;;;30.15;30.50;98941.94;5051402;28;20435;-50
2021/10/01 11:47:49;;;;;;;377.10;342.05;;;;;;;30.04;30.24;98933.38;5050020;28;20061;-50
2021/10/01 11:50:15;;;;;;;130.48;117.18;;;;;;;29.91;30.22;98923.56;5049988;28;20033;-50
2021/10/01 11:52:44;;;;;;;64.72;57.42;;;;;;;30.29;29.98;98919.28;5051275;28;20104;-50
2021/10/01 11:55:13;;;;;;;34.33;26.63;;;;;;;30.59;29.16;98911.97;5033325;28;20032;-50
2021/10/01 11:57:46;;;;;;;90.53;56.40;;;;;;;30.51;29.29;98916.31;5051151;28;20083;-50
2021/10/01 12:00:14;;;;;;;81.72;53.03;;;;;;;30.73;29.05;98906.31;5051160;28;20025;-50
2021/10/01 12:02:43;;;;;;;25.92;14.93;;;;;;;31.09;28.70;98903.06;5050013;28;20506;-50
2021/10/01 12:05:24;;;;;;;64.07;20.05;;;;;;;31.39;28.68;98897.50;5053632;28;20192;-50
2021/10/01 12:07:59;;;;;;;24.90;11.95;;;;;;;31.95;27.89;98894.41;5053623;28;20034;-50
2021/10/01 12:10:31;;;;;;;25.50;12.40;;;;;;;32.01;27.65;98887.66;5054932;28;20036;-50
2021/10/01 12:13:02;;;;;;;16.73;6.75;;;;;;;31.87;27.20;98876.28;5054819;28;20051;-50
2021/10/01 12:15:50;;;;;;;19.15;6.93;;;;;;;31.69;27.58;98876.47;5054755;28;20025;-50
2021/10/01 12:18:27;;;;;;;28.73;10.43;;;;;;;31.28;27.59;98875.44;5054729;28;20124;-50
2021/10/01 12:20:53;;;;;;;21.02;7.30;;;;;;;30.92;27.71;98886.91;5054650;28;20025;-50
2021/10/01 12:23:32;;;;;;;23.77;9.20;;;;;;;30.81;28.14;98871.03;5054603;28;20029;-50
2021/10/01 12:26:16;;;;;;;24.83;7.03;;;;;;;30.92;28.13;98885.00;5052798;28;20037;-50
2021/10/01 12:29:01;;;;;;;42.83;8.95;;;;;;;30.88;28.12;98872.41;5053270;28;20544;-50
2021/10/01 12:31:33;;;;;;;78.68;14.57;;;;;;;30.55;28.61;98865.00;5054436;28;20029;-50
2021/10/01 12:34:04;;;;;;;14.60;7.45;;;;;;;30.43;28.25;98876.53;5054649;28;20372;-50
2021/10/01 12:36:31;;;;;;;17.95;6.90;;;;;;;30.11;29.09;98865.19;5053036;28;20174;-50
2021/10/01 12:38:59;;;;;;;122.32;21.02;;;;;;;30.17;29.54;98860.41;5054263;28;20033;-50
2021/10/01 12:41:25;;;;;;;41.70;10.32;;;;;;;30.54;28.90;98866.13;5053042;28;20032;-50
2021/10/01 12:44:01;;;;;;;26.63;7.03;;;;;;;30.83;28.37;98846.31;5054228;28;20586;-49
2021/10/01 12:46:39;;;;;;;79.90;16.75;;;;;;;30.84;28.62;98847.88;5054262;28;20510;-50
2021/10/01 12:49:20;;;;;;;69.00;13.35;;;;;;;30.81;28.25;98841.22;5054231;28;20108;-50
2021/10/01 12:52:12;;;;;;;41.95;10.50;;;;;;;30.61;28.81;98833.88;5052728;28;20078;-50
2021/10/01 12:54:45;;;;;;;38.45;7.80;;;;;;;30.02;29.46;98835.47;5053998;28;20040;-50
2021/10/01 12:57:18;;;;;;;18.77;6.30;;;;;;;29.51;30.18;98842.63;5052638;28;20509;-50
2021/10/01 12:59:51;;;;;;;37.63;9.68;;;;;;;28.81;31.45;98841.88;5052611;28;20033;-49
2021/10/01 13:02:24;;;;;;;36.33;8.73;;;;;;;27.90;32.58;98836.09;5052675;28;20035;-50
2021/10/01 13:05:02;;;;;;;8.73;5.82;;;;;;;27.27;33.75;98832.56;5052563;28;20410;-50
2021/10/01 13:07:40;;;;;;;12.90;6.00;;;;;;;27.03;34.40;98833.63;5052593;28;20442;-50
2021/10/01 13:10:15;;;;;;;9.60;6.05;;;;;;;26.86;35.02;98842.38;5053821;28;20040;-49
2021/10/01 13:12:51;;;;;;;;;;;;;;;27.13;34.32;98839.91;5054164;28;20025;-50
2021/10/01 13:15:21;;;;;;;44.92;7.38;;;;;;;26.95;35.55;98825.50;5052237;28;20378;-50